Terminal Aerodrome Forecast
Issued by NWS

Home | Current Version | Previous Version | Text Only | Print | Product List | Glossary On
Versions: 1 2 3 4 5 6 7 8 9 10 11 12 13 14 15 16 17 18 19 20
000
FTUS46 KPDT 250200 AAA
TAFBDN
TAF AMD
KBDN 250219Z 2502/2524 VRB05KT 1/4SM FG OVC001
      TEMPO 2502/2505 4SM BR SCT003 SCT035
     FM250500 07008KT P6SM SCT035 BKN250
     FM250800 15011KT P6SM BKN250
     FM251500 18020G35KT P6SM VCSH BKN080=

USA.gov is the U.S. government's official web portal to all federal, state and local government web resources and services.